Coral Topaz — 3ELB7 — position and weather

sailwx.info

Track history (hours):
 
Tides and Currents Weather Stations Pressure Air Temp Water Temp Dewpoint Dewpoint Depression Visibility Wind Speed Wind Dir Waves Ship Positions

Coral Topaz

Last reported at 2016-Nov-21 08:26 UTC. Time now 2016-Dec-09 02:02 UTC.
Position S 26°53' E 153°46'.
Warning: this ship's position is 17 days out of date.

Length 225 m; draft 12.9 m.

Type: Ship. MMSI: 372904000.

Date/timePositionNaut miles runAvg speedWind from/ knotsBaromVisibWave heightAir tempDewpointWater temp
2016-Nov-21 08:26S 26°53' E 153°46'1112.5
2016-Nov-21 07:33S 27°04' E 153°46'2712.3
2016-Nov-21 05:23S 27°31' E 153°46'1012.0
2016-Nov-21 04:31S 27°42' E 153°47'2311.8
2016-Nov-21 02:33S 28°05' E 153°47'2211.1
2016-Nov-21 00:33S 28°27' E 153°46'26211.4
2016-Nov-20 01:33S 32°40' E 152°26'2512.4
2016-Nov-19 23:33S 32°56' E 152°03'1110.9
2016-Nov-19 22:33S 32°57' E 151°50'5 2.5
2016-Nov-19 20:33S 32°53' E 151°46'0 0.0
2016-Nov-19 19:30S 32°53' E 151°46'0 0.0
2016-Nov-19 17:27S 32°53' E 151°46'0 0.0
2016-Nov-19 16:30S 32°53' E 151°46'0 0.0
2016-Nov-19 14:30S 32°53' E 151°46'0 0.0
2016-Nov-19 11:33S 32°53' E 151°46'0 0.0
2016-Nov-19 09:33S 32°53' E 151°46'0 0.0
2016-Nov-19 07:33S 32°53' E 151°46'0 0.0
2016-Nov-19 05:33S 32°53' E 151°46'0 0.0
2016-Nov-19 04:33S 32°53' E 151°46'0 0.0
2016-Nov-19 03:33S 32°53' E 151°46'0 0.0
2016-Nov-19 02:33S 32°53' E 151°46'0 0.0
2016-Nov-19 01:30S 32°53' E 151°46'0 0.0
2016-Nov-19 00:33S 32°53' E 151°46'2 1.9
2016-Nov-18 23:34S 32°55' E 151°47'9 0.6
2016-Nov-18 07:18S 33°04' E 151°45'0 0.0
2016-Nov-18 04:29S 33°04' E 151°45'  
2016-Nov-14 00:32S 33°05' E 151°48'8 8.6
2016-Nov-13 23:33S 33°08' E 151°58'9 9.4
2016-Nov-13 22:33S 33°11' E 152°08'4 1.2
2016-Nov-13 19:31S 33°08' E 152°09'1 1.4
2016-Nov-13 18:31S 33°07' E 152°08'1 1.5
2016-Nov-13 17:31S 33°05' E 152°07'3 1.3
2016-Nov-13 15:31S 33°04' E 152°05'3 1.7
2016-Nov-13 13:34S 33°02' E 152°08'15 4.8
2016-Nov-13 10:31S 32°57' E 152°25'4 2.2
2016-Nov-13 08:31S 33°00' E 152°22'6 2.1
2016-Nov-13 05:31S 33°04' E 152°15'4 2.0
2016-Nov-13 03:31S 33°05' E 152°11'16 4.0
2016-Nov-12 23:33S 33°19' E 152°20'16 7.8
2016-Nov-12 21:29S 33°28' E 152°37'3 1.1
2016-Nov-12 19:11S 33°28' E 152°40'2 1.1
2016-Nov-12 17:32S 33°28' E 152°42'1 1.4
2016-Nov-12 16:32S 33°28' E 152°43'1 1.3
2016-Nov-12 15:29S 33°27' E 152°45'1 1.2
2016-Nov-12 14:23S 33°26' E 152°46'30 1.3
2016-Nov-11 15:32S 32°56' E 152°38'2 1.6
2016-Nov-11 14:32S 32°54' E 152°37'4 1.0
2016-Nov-11 10:32S 32°51' E 152°35'8 7.7
2016-Nov-11 09:33S 32°43' E 152°34'  
Track history (hours):
 
Tides and Currents Weather Stations Pressure Air Temp Water Temp Dewpoint Dewpoint Depression Visibility Wind Speed Wind Dir Waves Ship Positions

Coral Topaz

Last reported at 2016-Nov-21 08:26 UTC. Time now 2016-Dec-09 02:02 UTC.
Position S 26°53' E 153°46'.
Warning: this ship's position is 17 days out of date.

Length 225 m; draft 12.9 m.

Type: Ship. MMSI: 372904000.

Date/timePositionNaut miles runAvg speedWind from/ knotsBaromVisibWave heightAir tempDewpointWater temp
2016-Nov-21 08:26S 26°53' E 153°46'1112.5
2016-Nov-21 07:33S 27°04' E 153°46'2712.3
2016-Nov-21 05:23S 27°31' E 153°46'1012.0
2016-Nov-21 04:31S 27°42' E 153°47'2311.8
2016-Nov-21 02:33S 28°05' E 153°47'2211.1
2016-Nov-21 00:33S 28°27' E 153°46'26211.4
2016-Nov-20 01:33S 32°40' E 152°26'2512.4
2016-Nov-19 23:33S 32°56' E 152°03'1110.9
2016-Nov-19 22:33S 32°57' E 151°50'5 2.5
2016-Nov-19 20:33S 32°53' E 151°46'0 0.0
2016-Nov-19 19:30S 32°53' E 151°46'0 0.0
2016-Nov-19 17:27S 32°53' E 151°46'0 0.0
2016-Nov-19 16:30S 32°53' E 151°46'0 0.0
2016-Nov-19 14:30S 32°53' E 151°46'0 0.0
2016-Nov-19 11:33S 32°53' E 151°46'0 0.0
2016-Nov-19 09:33S 32°53' E 151°46'0 0.0
2016-Nov-19 07:33S 32°53' E 151°46'0 0.0
2016-Nov-19 05:33S 32°53' E 151°46'0 0.0
2016-Nov-19 04:33S 32°53' E 151°46'0 0.0
2016-Nov-19 03:33S 32°53' E 151°46'0 0.0
2016-Nov-19 02:33S 32°53' E 151°46'0 0.0
2016-Nov-19 01:30S 32°53' E 151°46'0 0.0
2016-Nov-19 00:33S 32°53' E 151°46'2 1.9
2016-Nov-18 23:34S 32°55' E 151°47'9 0.6
2016-Nov-18 07:18S 33°04' E 151°45'0 0.0
2016-Nov-18 04:29S 33°04' E 151°45'  
2016-Nov-14 00:32S 33°05' E 151°48'8 8.6
2016-Nov-13 23:33S 33°08' E 151°58'9 9.4
2016-Nov-13 22:33S 33°11' E 152°08'4 1.2
2016-Nov-13 19:31S 33°08' E 152°09'1 1.4
2016-Nov-13 18:31S 33°07' E 152°08'1 1.5
2016-Nov-13 17:31S 33°05' E 152°07'3 1.3
2016-Nov-13 15:31S 33°04' E 152°05'3 1.7
2016-Nov-13 13:34S 33°02' E 152°08'15 4.8
2016-Nov-13 10:31S 32°57' E 152°25'4 2.2
2016-Nov-13 08:31S 33°00' E 152°22'6 2.1
2016-Nov-13 05:31S 33°04' E 152°15'4 2.0
2016-Nov-13 03:31S 33°05' E 152°11'16 4.0
2016-Nov-12 23:33S 33°19' E 152°20'16 7.8
2016-Nov-12 21:29S 33°28' E 152°37'3 1.1
2016-Nov-12 19:11S 33°28' E 152°40'2 1.1
2016-Nov-12 17:32S 33°28' E 152°42'1 1.4
2016-Nov-12 16:32S 33°28' E 152°43'1 1.3
2016-Nov-12 15:29S 33°27' E 152°45'1 1.2
2016-Nov-12 14:23S 33°26' E 152°46'30 1.3
2016-Nov-11 15:32S 32°56' E 152°38'2 1.6
2016-Nov-11 14:32S 32°54' E 152°37'4 1.0
2016-Nov-11 10:32S 32°51' E 152°35'8 7.7
2016-Nov-11 09:33S 32°43' E 152°34'  

Dump ship's entire track history